createdAt,value
2018-12-04T00:00:34.046Z,11.15
2018-12-04T00:01:34.742Z,11.12
2018-12-04T00:02:35.436Z,11.02
2018-12-04T00:03:36.416Z,11.19
2018-12-04T00:04:36.389Z,11.05
2018-12-04T00:05:37.096Z,11.1
2018-12-04T00:06:37.792Z,11.04
2018-12-04T00:07:38.348Z,11.12
2018-12-04T00:08:39.044Z,11.04
2018-12-04T00:09:40.465Z,11.13
2018-12-04T00:10:41.438Z,11.16
2018-12-04T00:11:41.580Z,11.2
2018-12-04T00:12:42.283Z,11.13
2018-12-04T00:13:43.423Z,11.2
2018-12-04T00:14:45.127Z,11.22
2018-12-04T00:15:45.269Z,11.26
2018-12-04T00:16:46.525Z,11.19
2018-12-04T00:17:47.932Z,11.18
2018-12-04T00:18:47.626Z,11.13
2018-12-04T00:19:48.922Z,11.1
2018-12-04T00:20:49.616Z,11.1
2018-12-04T00:21:50.075Z,11.05
2018-12-04T00:22:50.491Z,11.1
2018-12-04T00:23:51.469Z,11.02
2018-12-04T00:24:51.607Z,10.94
2018-12-04T00:25:52.756Z,10.94
2018-12-04T00:26:54.177Z,10.95
2018-12-04T00:27:54.578Z,11.01
2018-12-04T00:28:56.005Z,11.15
2018-12-04T00:29:56.974Z,11.08
2018-12-04T00:30:57.392Z,11.15
2018-12-04T00:31:58.646Z,11.13
2018-12-04T00:32:59.344Z,11.12
2018-12-04T00:33:59.320Z,11.04
2018-12-04T00:34:59.736Z,11.05
2018-12-04T00:35:59.882Z,11.1
2018-12-04T00:37:00.602Z,11.15
2018-12-04T00:38:01.457Z,11.08
2018-12-04T00:39:03.386Z,11.05
2018-12-04T00:40:04.087Z,11.1
2018-12-04T00:41:04.784Z,11.05
2018-12-04T00:42:05.491Z,11.04
2018-12-04T00:43:05.917Z,11
2018-12-04T00:44:07.059Z,11.04
2018-12-04T00:45:07.760Z,11.07
2018-12-04T00:46:08.453Z,11.07
2018-12-04T00:47:08.591Z,11.07
2018-12-04T00:48:09.183Z,11.07
2018-12-04T00:49:10.441Z,11.1
2018-12-04T00:50:11.414Z,11.08
2018-12-04T00:51:11.832Z,11.1
2018-12-04T00:52:13.084Z,11.05
2018-12-04T00:53:13.507Z,10.95
2018-12-04T00:54:14.925Z,10.97
2018-12-04T00:55:16.178Z,10.89
2018-12-04T00:56:16.319Z,10.86
2018-12-04T00:57:18.027Z,10.86
2018-12-04T00:58:18.620Z,10.94
2018-12-04T00:59:20.042Z,10.95
2018-12-04T01:00:21.016Z,10.95
2018-12-04T01:01:21.717Z,11.01
2018-12-04T01:02:22.414Z,10.86
2018-12-04T01:03:23.397Z,10.87
2018-12-04T01:04:23.536Z,10.87
2018-12-04T01:05:24.676Z,10.95
2018-12-04T01:06:25.098Z,10.89
2018-12-04T01:07:25.797Z,10.89
2018-12-04T01:08:26.345Z,11.01
2018-12-04T01:09:26.762Z,11.04
2018-12-04T01:10:27.905Z,11.12
2018-12-04T01:11:29.044Z,11
2018-12-04T01:12:29.741Z,10.95
2018-12-04T01:13:30.441Z,11.12
2018-12-04T01:14:31.136Z,11.04
2018-12-04T01:15:31.833Z,10.95
2018-12-04T01:16:32.968Z,10.94
2018-12-04T01:17:34.102Z,10.89
2018-12-04T01:18:34.934Z,10.94
2018-12-04T01:19:36.173Z,10.94
2018-12-04T01:20:36.587Z,10.97
2018-12-04T01:21:38.110Z,10.97
2018-12-04T01:22:38.075Z,10.94
2018-12-04T01:23:38.766Z,11.02
2018-12-04T01:24:39.456Z,11
2018-12-04T01:25:40.416Z,10.97
2018-12-04T01:26:40.547Z,10.92
2018-12-04T01:27:40.952Z,11.04
2018-12-04T01:28:41.807Z,11.05
2018-12-04T01:29:42.504Z,11.04
2018-12-04T01:30:43.910Z,11.04
2018-12-04T01:31:44.876Z,11.01
2018-12-04T01:32:45.559Z,11.08
2018-12-04T01:33:46.246Z,11.13
2018-12-04T01:34:47.931Z,11.07
2018-12-04T01:35:48.618Z,11.13
2018-12-04T01:36:50.626Z,11.07
2018-12-04T01:37:50.037Z,11.16
2018-12-04T01:38:51.127Z,11.15
2018-12-04T01:39:52.813Z,11.13
2018-12-04T01:40:52.777Z,11.1
2018-12-04T01:41:52.909Z,11.07
2018-12-04T01:42:54.038Z,11.05
2018-12-04T01:43:54.723Z,11.02
2018-12-04T01:44:55.132Z,10.87
2018-12-04T01:45:55.546Z,10.98
2018-12-04T01:46:57.233Z,10.92
2018-12-04T01:47:57.914Z,11.01
2018-12-04T01:48:58.448Z,10.94
2018-12-04T01:49:59.449Z,10.97
2018-12-04T01:50:59.897Z,10.89
2018-12-04T01:52:00.305Z,11
2018-12-04T01:53:01.715Z,10.95
2018-12-04T01:54:02.401Z,11.02
2018-12-04T01:55:02.807Z,11.02
2018-12-04T01:56:03.494Z,11.05
2018-12-04T01:57:04.902Z,11.05
2018-12-04T01:58:06.142Z,11.02
2018-12-04T01:59:05.958Z,11.05
2018-12-04T02:00:07.647Z,11
2018-12-04T02:01:07.784Z,11.12
2018-12-04T02:02:08.195Z,11.05
2018-12-04T02:03:08.604Z,11.16
2018-12-04T02:04:10.125Z,11.13
2018-12-04T02:05:10.536Z,11.13
2018-12-04T02:06:10.946Z,11.19
2018-12-04T02:07:11.357Z,11.3
2018-12-04T02:08:11.765Z,11.18
2018-12-04T02:09:12.887Z,11.15
2018-12-04T02:10:14.432Z,11.15
2018-12-04T02:11:14.890Z,11.15
2018-12-04T02:12:15.584Z,11.16
2018-12-04T02:13:15.825Z,11.12
2018-12-04T02:14:16.510Z,11.13
2018-12-04T02:15:17.197Z,11.05
2018-12-04T02:16:17.608Z,11.12
2018-12-04T02:17:19.296Z,11.18
2018-12-04T02:18:19.980Z,11.18
2018-12-04T02:19:20.800Z,11.15
2018-12-04T02:20:21.486Z,11.2
2018-12-04T02:21:21.650Z,11.27
2018-12-04T02:22:22.337Z,11.19
2018-12-04T02:23:23.575Z,11.3
2018-12-04T02:24:23.985Z,11.22
2018-12-04T02:25:24.671Z,11.22
2018-12-04T02:26:25.359Z,11.22
2018-12-04T02:27:26.321Z,11.25
2018-12-04T02:28:26.731Z,11.19
2018-12-04T02:29:27.827Z,11.16
2018-12-04T02:30:28.624Z,11.23
2018-12-04T02:31:28.591Z,11.2
2018-12-04T02:32:28.829Z,11.2
2018-12-04T02:33:29.804Z,11.22
2018-12-04T02:34:30.492Z,11.13
2018-12-04T02:35:31.183Z,11.16
2018-12-04T02:36:31.876Z,11.15
2018-12-04T02:37:33.283Z,11.02
2018-12-04T02:38:33.804Z,10.98
2018-12-04T02:39:34.087Z,11.04
2018-12-04T02:40:34.783Z,11.04
2018-12-04T02:41:36.295Z,10.92
2018-12-04T02:42:36.991Z,10.89
2018-12-04T02:43:37.955Z,11.01
2018-12-04T02:44:38.639Z,10.89
2018-12-04T02:45:39.050Z,10.8
2018-12-04T02:46:40.015Z,10.76
2018-12-04T02:47:40.423Z,10.77
2018-12-04T02:48:41.129Z,10.77
2018-12-04T02:49:41.806Z,10.61
2018-12-04T02:50:42.770Z,10.67
2018-12-04T02:51:43.175Z,10.62
2018-12-04T02:52:43.862Z,10.71
2018-12-04T02:53:45.114Z,10.62
2018-12-04T02:54:45.077Z,10.71
2018-12-04T02:55:46.778Z,10.55
2018-12-04T02:56:46.737Z,10.55
2018-12-04T02:57:48.157Z,10.46
2018-12-04T02:58:48.846Z,10.49
2018-12-04T02:59:49.256Z,10.48
2018-12-04T03:00:49.661Z,10.53
2018-12-04T03:01:51.186Z,10.51
2018-12-04T03:02:51.598Z,10.51
2018-12-04T03:03:52.842Z,10.43
2018-12-04T03:04:52.574Z,10.45
2018-12-04T03:05:53.259Z,10.42
2018-12-04T03:06:54.696Z,10.45
2018-12-04T03:07:55.383Z,10.51
2018-12-04T03:08:56.360Z,10.45
2018-12-04T03:09:57.514Z,10.43
2018-12-04T03:10:58.477Z,10.48
2018-12-04T03:12:00.018Z,10.45
2018-12-04T03:13:00.702Z,10.42
2018-12-04T03:14:01.721Z,10.39
2018-12-04T03:15:01.683Z,10.49
2018-12-04T03:16:02.919Z,10.39
2018-12-04T03:17:02.889Z,10.48
2018-12-04T03:18:03.852Z,10.46
2018-12-04T03:19:04.825Z,10.55
2018-12-04T03:20:04.776Z,10.53
2018-12-04T03:21:05.184Z,10.46
2018-12-04T03:22:06.150Z,10.51
2018-12-04T03:23:07.124Z,10.58
2018-12-04T03:24:08.088Z,10.59
2018-12-04T03:25:09.608Z,10.61
2018-12-04T03:26:09.573Z,10.65
2018-12-04T03:27:10.534Z,10.71
2018-12-04T03:28:12.335Z,10.71
2018-12-04T03:29:12.298Z,10.68
2018-12-04T03:30:13.445Z,10.69
2018-12-04T03:31:14.790Z,10.75
2018-12-04T03:32:15.604Z,10.75
2018-12-04T03:33:15.865Z,10.65
2018-12-04T03:34:16.137Z,10.67
2018-12-04T03:35:17.543Z,10.59
2018-12-04T03:36:17.787Z,10.61
2018-12-04T03:37:18.529Z,10.58
2018-12-04T03:38:19.493Z,10.69
2018-12-04T03:39:19.739Z,10.69
2018-12-04T03:40:20.848Z,10.71
2018-12-04T03:41:21.817Z,10.65
2018-12-04T03:42:22.239Z,10.71
2018-12-04T03:43:23.204Z,10.65
2018-12-04T03:44:23.924Z,10.59
2018-12-04T03:45:24.170Z,10.65
2018-12-04T03:46:24.872Z,10.59
2018-12-04T03:47:26.283Z,10.62
2018-12-04T03:48:26.693Z,10.64
2018-12-04T03:49:27.659Z,10.62
2018-12-04T03:50:28.816Z,10.65
2018-12-04T03:51:29.794Z,10.65
2018-12-04T03:52:31.674Z,10.46
2018-12-04T03:53:32.640Z,10.49
2018-12-04T03:54:33.611Z,10.55
2018-12-04T03:55:35.355Z,10.41
2018-12-04T03:56:36.057Z,10.36
2018-12-04T03:57:36.744Z,10.41
2018-12-04T03:58:37.710Z,10.48
2018-12-04T03:59:38.505Z,10.34
2018-12-04T04:00:39.174Z,10.33
2018-12-04T04:01:39.352Z,10.34
2018-12-04T04:02:40.036Z,10.27
2018-12-04T04:03:40.285Z,10.23
2018-12-04T04:04:41.591Z,10.27
2018-12-04T04:05:41.996Z,10.31
2018-12-04T04:06:43.146Z,10.25
2018-12-04T04:07:44.116Z,10.25
2018-12-04T04:08:44.815Z,10.27
2018-12-04T04:09:46.336Z,10.25
2018-12-04T04:10:46.949Z,10.23
2018-12-04T04:11:47.084Z,10.23
2018-12-04T04:12:48.055Z,10.27
2018-12-04T04:13:48.493Z,10.2
2018-12-04T04:14:49.901Z,10.33
2018-12-04T04:15:50.311Z,10.18
2018-12-04T04:16:51.331Z,10.24
2018-12-04T04:17:52.017Z,10.28
2018-12-04T04:18:52.702Z,10.24
2018-12-04T04:19:53.838Z,10.17
2018-12-04T04:20:54.961Z,10.17
2018-12-04T04:21:55.651Z,10.17
2018-12-04T04:22:56.900Z,10.27
2018-12-04T04:23:56.873Z,10.27
2018-12-04T04:24:58.121Z,10.25
2018-12-04T04:25:59.084Z,10.23
2018-12-04T04:27:00.052Z,10.36
2018-12-04T04:28:00.018Z,10.42
2018-12-04T04:29:00.706Z,10.34
2018-12-04T04:30:01.962Z,10.36
2018-12-04T04:31:02.152Z,10.36
2018-12-04T04:32:02.859Z,10.45
2018-12-04T04:33:03.540Z,10.41
2018-12-04T04:34:05.063Z,10.41
2018-12-04T04:35:06.026Z,10.38
2018-12-04T04:36:06.713Z,10.41
2018-12-04T04:37:07.960Z,10.41
2018-12-04T04:38:08.204Z,10.46
2018-12-04T04:39:08.615Z,10.49
2018-12-04T04:40:09.884Z,10.34
2018-12-04T04:41:10.266Z,10.43
2018-12-04T04:42:11.511Z,10.45
2018-12-04T04:43:12.605Z,10.42
2018-12-04T04:44:12.294Z,10.42
2018-12-04T04:45:13.248Z,10.46
2018-12-04T04:46:14.801Z,10.55
2018-12-04T04:47:14.769Z,10.43
2018-12-04T04:48:14.940Z,10.39
2018-12-04T04:49:15.626Z,10.42
2018-12-04T04:50:16.887Z,10.45
2018-12-04T04:51:17.283Z,10.42
2018-12-04T04:52:17.704Z,10.39
2018-12-04T04:53:18.943Z,10.38
2018-12-04T04:54:19.197Z,10.36
2018-12-04T04:55:19.720Z,10.34
2018-12-04T04:56:19.990Z,10.36
2018-12-04T04:57:21.062Z,10.41
2018-12-04T04:58:21.578Z,10.31
2018-12-04T04:59:22.266Z,10.42
2018-12-04T05:00:23.557Z,10.33
2018-12-04T05:01:24.670Z,10.28
2018-12-04T05:02:24.367Z,10.24
2018-12-04T05:03:25.779Z,10.28
2018-12-04T05:04:26.745Z,10.21
2018-12-04T05:05:27.163Z,10.15
2018-12-04T05:06:28.135Z,10.21
2018-12-04T05:07:28.540Z,10.12
2018-12-04T05:08:29.846Z,10.09
2018-12-04T05:09:29.538Z,10.07
2018-12-04T05:10:30.503Z,10.05
2018-12-04T05:11:30.613Z,10.05
2018-12-04T05:12:31.576Z,9.95
2018-12-04T05:13:32.091Z,9.9
2018-12-04T05:14:31.779Z,9.82
2018-12-04T05:15:32.736Z,9.97
2018-12-04T05:16:33.534Z,9.95
2018-12-04T05:17:33.778Z,9.81
2018-12-04T05:18:34.775Z,9.73
2018-12-04T05:19:34.765Z,9.77
2018-12-04T05:20:35.171Z,9.67
2018-12-04T05:21:36.122Z,9.63
2018-12-04T05:22:36.813Z,9.64
2018-12-04T05:23:37.499Z,9.67
2018-12-04T05:24:38.908Z,9.67
2018-12-04T05:25:39.036Z,9.64
2018-12-04T05:26:39.996Z,9.63
2018-12-04T05:27:40.956Z,9.67
2018-12-04T05:28:41.928Z,9.51
2018-12-04T05:29:42.645Z,9.49
2018-12-04T05:30:43.611Z,9.47
2018-12-04T05:31:44.087Z,9.49
2018-12-04T05:32:45.537Z,9.49
2018-12-04T05:33:46.668Z,9.49
2018-12-04T05:34:47.795Z,9.56
2018-12-04T05:35:49.203Z,9.55
2018-12-04T05:36:49.879Z,9.47
2018-12-04T05:37:50.119Z,9.54
2018-12-04T05:38:50.250Z,9.56
2018-12-04T05:39:51.490Z,9.51
2018-12-04T05:40:52.177Z,9.48
2018-12-04T05:41:52.289Z,9.58
2018-12-04T05:42:52.971Z,9.51
2018-12-04T05:43:53.657Z,9.52
2018-12-04T05:44:54.345Z,9.49
2018-12-04T05:45:55.472Z,9.42
2018-12-04T05:46:56.432Z,9.37
2018-12-04T05:47:57.116Z,9.36
2018-12-04T05:48:57.804Z,9.31
2018-12-04T05:49:59.489Z,9.31
2018-12-04T05:50:59.828Z,9.33
2018-12-04T05:52:00.361Z,9.29
2018-12-04T05:53:01.051Z,9.3
2018-12-04T05:54:02.013Z,9.36
2018-12-04T05:55:03.258Z,9.27
2018-12-04T05:56:03.662Z,9.27
2018-12-04T05:57:04.630Z,9.21
2018-12-04T05:58:04.863Z,9.24
2018-12-04T05:59:04.824Z,9.16
2018-12-04T06:00:05.506Z,9.11
2018-12-04T06:01:05.911Z,9.11
2018-12-04T06:02:06.461Z,9.15
2018-12-04T06:03:07.590Z,9.16
2018-12-04T06:04:08.320Z,9.16
2018-12-04T06:05:09.006Z,9.11
2018-12-04T06:06:09.410Z,9.11
2018-12-04T06:07:10.093Z,9.03
2018-12-04T06:08:10.772Z,9.05
2018-12-04T06:09:11.455Z,8.99
2018-12-04T06:10:11.860Z,9.11
2018-12-04T06:11:12.271Z,9.03
2018-12-04T06:12:13.357Z,9.02
2018-12-04T06:13:13.319Z,9.02
2018-12-04T06:14:13.564Z,9.02
2018-12-04T06:15:15.262Z,9.02
2018-12-04T06:16:15.983Z,9.03
2018-12-04T06:17:16.385Z,9.03
2018-12-04T06:18:16.803Z,9.02
2018-12-04T06:19:17.483Z,9
2018-12-04T06:20:18.614Z,9.11
2018-12-04T06:21:19.573Z,9.02
2018-12-04T06:22:20.945Z,8.97
2018-12-04T06:23:21.625Z,9.05
2018-12-04T06:24:22.161Z,8.95
2018-12-04T06:25:23.398Z,9.11
2018-12-04T06:26:23.361Z,9.08
2018-12-04T06:27:24.767Z,9.05
2018-12-04T06:28:25.453Z,9.05
2018-12-04T06:29:26.137Z,9.11
2018-12-04T06:30:27.380Z,9.13
2018-12-04T06:31:28.063Z,9.11
2018-12-04T06:32:28.608Z,9.12
2018-12-04T06:33:29.013Z,9.13
2018-12-04T06:34:29.981Z,8.97
2018-12-04T06:35:30.431Z,9.09
2018-12-04T06:36:30.838Z,9.11
2018-12-04T06:37:31.242Z,9.05
2018-12-04T06:38:32.207Z,9.13
2018-12-04T06:39:32.371Z,9.12
2018-12-04T06:40:34.053Z,9.11
2018-12-04T06:41:34.180Z,9.08
2018-12-04T06:42:34.712Z,9.13
2018-12-04T06:43:35.397Z,9.15
2018-12-04T06:44:36.550Z,9.22
2018-12-04T06:45:37.792Z,9.29
2018-12-04T06:46:37.920Z,9.3
2018-12-04T06:47:38.619Z,9.33
2018-12-04T06:48:39.585Z,9.36
2018-12-04T06:49:39.720Z,9.36
2018-12-04T06:50:41.236Z,9.37
2018-12-04T06:51:41.367Z,9.3
2018-12-04T06:52:42.176Z,9.26
2018-12-04T06:53:43.588Z,9.29
2018-12-04T06:54:43.991Z,9.27
2018-12-04T06:55:44.952Z,9.34
2018-12-04T06:56:45.077Z,9.31
2018-12-04T06:57:46.519Z,9.3
2018-12-04T06:58:47.206Z,9.34
2018-12-04T06:59:48.617Z,9.26
2018-12-04T07:00:49.301Z,9.18
2018-12-04T07:01:49.989Z,9.19
2018-12-04T07:02:50.823Z,9.19
2018-12-04T07:03:52.031Z,9.16
2018-12-04T07:04:52.507Z,9.12
2018-12-04T07:05:54.972Z,9.12
2018-12-04T07:06:55.424Z,9.09
2018-12-04T07:07:58.590Z,9.13
2018-12-04T07:08:56.872Z,9.02
2018-12-04T07:09:57.835Z,9.05
2018-12-04T07:10:58.520Z,9.05
2018-12-04T07:12:04.100Z,8.97
2018-12-04T07:13:05.496Z,8.99
2018-12-04T07:14:05.913Z,8.82
2018-12-04T07:15:07.321Z,8.92
2018-12-04T07:16:08.333Z,8.82
2018-12-04T07:17:10.585Z,8.77
2018-12-04T07:18:09.281Z,8.63
2018-12-04T07:19:09.244Z,8.5
2018-12-04T07:20:09.925Z,8.46
2018-12-04T07:21:14.871Z,8.46
2018-12-04T07:21:23.924Z,8.46
2018-12-04T07:22:27.478Z,8.44
2018-12-04T07:23:24.965Z,8.36
2018-12-04T07:24:25.285Z,8.46
2018-12-04T07:25:25.688Z,8.34
2018-12-04T07:26:26.817Z,8.32
2018-12-04T07:27:27.504Z,8.28
2018-12-04T07:28:28.469Z,8.18
2018-12-04T07:29:29.447Z,8.16
2018-12-04T07:30:29.135Z,8.13
2018-12-04T07:31:30.542Z,8.09
2018-12-04T07:32:43.136Z,7.9
2018-12-04T07:33:43.966Z,7.9
2018-12-04T07:34:48.047Z,7.84
2018-12-04T07:35:47.576Z,7.67
2018-12-04T07:36:51.988Z,7.75
2018-12-04T07:37:50.475Z,7.7
2018-12-04T07:38:50.382Z,7.62
2018-12-04T07:39:51.069Z,7.59
2018-12-04T07:40:51.517Z,7.44
2018-12-04T07:41:53.367Z,7.44
2018-12-04T07:42:58.212Z,7.28
2018-12-04T07:43:10.684Z,7.33
2018-12-04T07:43:23.990Z,7.31
2018-12-04T07:43:33.142Z,7.33
2018-12-04T07:44:32.808Z,7.25
2018-12-04T07:45:33.770Z,7.19
2018-12-04T07:46:34.178Z,7.15
2018-12-04T07:47:35.623Z,7.19
2018-12-04T07:48:37.170Z,7.13
2018-12-04T07:49:41.476Z,7.1
2018-12-04T07:49:50.768Z,7.11
2018-12-04T07:50:53.901Z,7.19
2018-12-04T07:51:03.057Z,7.11
2018-12-04T07:52:08.044Z,7.22
2018-12-04T07:53:06.280Z,7.21
2018-12-04T07:54:06.245Z,7.25
2018-12-04T07:55:06.929Z,7.26
2018-12-04T07:56:08.067Z,7.15
2018-12-04T07:57:13.090Z,7.22
2018-12-04T07:57:24.840Z,7.19
2018-12-04T07:57:33.402Z,7.21
2018-12-04T07:58:34.058Z,7.31
2018-12-04T07:59:34.741Z,7.28
2018-12-04T08:00:40.007Z,7.36
2018-12-04T08:00:50.685Z,7.33
2018-12-04T08:01:52.732Z,7.39
2018-12-04T08:02:02.370Z,7.44
2018-12-04T08:03:01.123Z,7.46
2018-12-04T08:04:06.006Z,7.5
2018-12-04T08:04:14.864Z,7.5
2018-12-04T08:05:19.447Z,7.53
2018-12-04T08:05:27.892Z,7.55
2018-12-04T08:06:28.443Z,7.7
2018-12-04T08:07:29.160Z,7.64
2018-12-04T08:08:32.270Z,7.74
2018-12-04T08:09:35.605Z,7.8
2018-12-04T08:09:43.674Z,7.8
2018-12-04T08:10:47.457Z,7.93
2018-12-04T08:10:56.283Z,7.84
2018-12-04T08:11:56.386Z,7.91
2018-12-04T08:12:57.072Z,8.01
2018-12-04T08:13:57.757Z,8.05
2018-12-04T08:14:58.165Z,8.09
2018-12-04T08:15:58.570Z,8.17
2018-12-04T08:16:58.746Z,8.11
2018-12-04T08:17:59.434Z,8.05
2018-12-04T08:19:00.116Z,8.08
2018-12-04T08:20:00.802Z,8.13
2018-12-04T08:21:01.494Z,8.11
2018-12-04T08:22:02.799Z,8.14
2018-12-04T08:23:03.454Z,8.17
2018-12-04T08:24:04.019Z,8.13
2018-12-04T08:25:04.584Z,8.14
2018-12-04T08:26:04.275Z,8.16
2018-12-04T08:27:05.958Z,8.16
2018-12-04T08:28:05.646Z,8.06
2018-12-04T08:29:06.071Z,8.14
2018-12-04T08:30:06.479Z,8.18
2018-12-04T08:31:08.780Z,8.14
2018-12-04T08:32:09.906Z,8.18
2018-12-04T08:33:10.501Z,8.23
2018-12-04T08:34:10.466Z,8.26
2018-12-04T08:35:13.244Z,8.27
2018-12-04T08:36:12.603Z,8.27
2018-12-04T08:37:15.199Z,8.23
2018-12-04T08:38:14.264Z,8.18
2018-12-04T08:39:14.953Z,8.18
2018-12-04T08:40:16.086Z,8.23
2018-12-04T08:41:16.817Z,8.27
2018-12-04T08:42:17.641Z,8.2
2018-12-04T08:43:18.332Z,8.28
2018-12-04T08:44:19.463Z,8.23
2018-12-04T08:45:20.592Z,8.14
2018-12-04T08:46:21.560Z,8.17
2018-12-04T08:47:21.970Z,8.2
2018-12-04T08:48:22.657Z,8.21
2018-12-04T08:49:22.623Z,8.21
2018-12-04T08:50:23.587Z,8.24
2018-12-04T08:51:24.550Z,8.16
2018-12-04T08:52:25.480Z,8.16
2018-12-04T08:53:26.725Z,8.17
2018-12-04T08:54:27.129Z,8.18
2018-12-04T08:55:28.820Z,8.2
2018-12-04T08:56:31.129Z,8.31
2018-12-04T08:57:31.541Z,8.35
2018-12-04T08:58:32.508Z,8.27
2018-12-04T08:59:33.196Z,8.34
2018-12-04T09:00:33.604Z,8.32
2018-12-04T09:01:34.291Z,8.34
2018-12-04T09:02:34.943Z,8.38
2018-12-04T09:03:35.632Z,8.41
2018-12-04T09:04:36.039Z,8.36
2018-12-04T09:05:40.556Z,8.54
2018-12-04T09:05:50.598Z,8.59
2018-12-04T09:06:51.904Z,8.57
2018-12-04T09:07:52.575Z,8.52
2018-12-04T09:08:54.043Z,8.57
2018-12-04T09:09:53.977Z,8.61
2018-12-04T09:10:54.663Z,8.64
2018-12-04T09:11:56.073Z,8.71
2018-12-04T09:12:56.540Z,8.74
2018-12-04T09:13:58.224Z,8.77
2018-12-04T09:14:58.639Z,8.75
2018-12-04T09:15:59.660Z,8.72
2018-12-04T09:17:00.762Z,8.78
2018-12-04T09:18:01.169Z,8.84
2018-12-04T09:19:02.900Z,8.89
2018-12-04T09:20:03.450Z,8.79
2018-12-04T09:21:04.003Z,8.86
2018-12-04T09:22:04.325Z,8.78
2018-12-04T09:23:05.266Z,8.92
2018-12-04T09:24:05.730Z,8.79
2018-12-04T09:25:06.921Z,8.9
2018-12-04T09:26:07.719Z,8.95
2018-12-04T09:27:09.502Z,8.89
2018-12-04T09:28:11.072Z,8.96
2018-12-04T09:29:10.840Z,8.95
2018-12-04T09:30:11.387Z,8.96
2018-12-04T09:31:12.238Z,9.08
2018-12-04T09:32:13.206Z,8.96
2018-12-04T09:33:13.337Z,9.05
2018-12-04T09:34:14.584Z,9
2018-12-04T09:35:15.018Z,9.08
2018-12-04T09:36:15.701Z,9.12
2018-12-04T09:37:16.826Z,9.19
2018-12-04T09:38:16.795Z,9.29
2018-12-04T09:39:21.578Z,9.29
2018-12-04T09:39:32.506Z,9.33
2018-12-04T09:39:45.259Z,9.29
2018-12-04T09:39:54.727Z,9.29
2018-12-04T09:40:55.159Z,9.33
2018-12-04T09:41:56.582Z,9.4
2018-12-04T09:42:57.034Z,9.45
2018-12-04T09:43:09.328Z,9.51
2018-12-04T09:44:10.721Z,9.64
2018-12-04T09:45:11.145Z,9.59
2018-12-04T09:46:11.556Z,9.74
2018-12-04T09:47:12.257Z,9.76
2018-12-04T09:48:12.669Z,9.82
2018-12-04T09:49:14.634Z,9.87
2018-12-04T09:50:14.578Z,9.84
2018-12-04T09:51:14.994Z,9.84
2018-12-04T09:52:15.408Z,9.9
2018-12-04T09:53:16.566Z,9.88
2018-12-04T09:54:17.017Z,9.74
2018-12-04T09:55:17.472Z,9.67
2018-12-04T09:56:17.884Z,9.62
2018-12-04T09:57:19.552Z,9.52
2018-12-04T09:58:19.631Z,9.49
2018-12-04T09:59:20.373Z,9.51
2018-12-04T10:00:21.510Z,9.39
2018-12-04T10:01:22.921Z,9.27
2018-12-04T10:02:23.976Z,9.24
2018-12-04T10:03:24.856Z,9.15
2018-12-04T10:04:26.678Z,9.02
2018-12-04T10:05:28.306Z,9
2018-12-04T10:06:32.275Z,8.93
2018-12-04T10:06:41.214Z,8.86
2018-12-04T10:07:42.333Z,8.77
2018-12-04T10:08:42.787Z,8.64
2018-12-04T10:09:43.473Z,8.54
2018-12-04T10:10:43.937Z,8.46
2018-12-04T10:11:44.344Z,8.35
2018-12-04T10:12:45.891Z,8.34
2018-12-04T10:13:45.935Z,8.34
2018-12-04T10:14:46.621Z,8.42
2018-12-04T10:15:47.319Z,8.41
2018-12-04T10:16:48.469Z,8.32
2018-12-04T10:17:49.563Z,8.28
2018-12-04T10:18:50.527Z,8.34
2018-12-04T10:19:51.222Z,8.23
2018-12-04T10:20:51.628Z,8.27
2018-12-04T10:21:52.759Z,8.26
2018-12-04T10:22:53.893Z,8.21
2018-12-04T10:23:55.417Z,8.21
2018-12-04T10:24:55.554Z,8.27
2018-12-04T10:25:56.524Z,8.27
2018-12-04T10:26:56.942Z,8.38
2018-12-04T10:27:58.346Z,8.46
2018-12-04T10:28:59.315Z,8.56
2018-12-04T10:30:01.594Z,8.64
2018-12-04T10:31:00.559Z,8.75
2018-12-04T10:32:01.251Z,8.86
2018-12-04T10:33:01.949Z,8.93
2018-12-04T10:34:06.561Z,8.97
2018-12-04T10:34:17.884Z,9.08
2018-12-04T10:34:30.194Z,9.02
2018-12-04T10:34:42.547Z,9.13
2018-12-04T10:34:54.718Z,9.03
2018-12-04T10:35:03.666Z,9.08
2018-12-04T10:36:07.201Z,9.05
2018-12-04T10:36:18.532Z,9.05
2018-12-04T10:36:29.727Z,9.05
2018-12-04T10:37:26.815Z,9.11
2018-12-04T10:38:28.129Z,9.05
2018-12-04T10:39:28.820Z,9.27
2018-12-04T10:40:29.957Z,9.19
2018-12-04T10:41:30.369Z,9.19
2018-12-04T10:42:31.341Z,9.29
2018-12-04T10:43:31.362Z,9.22
2018-12-04T10:44:32.592Z,9.39
2018-12-04T10:45:35.243Z,9.31
2018-12-04T10:46:34.129Z,9.36
2018-12-04T10:47:34.995Z,9.42
2018-12-04T10:48:35.681Z,9.47
2018-12-04T10:49:35.814Z,9.34
2018-12-04T10:50:37.252Z,9.36
2018-12-04T10:51:43.610Z,9.39
2018-12-04T10:51:50.045Z,9.36
2018-12-04T10:52:50.439Z,9.36
2018-12-04T10:53:52.128Z,9.34
2018-12-04T10:54:52.972Z,9.26
2018-12-04T10:55:53.284Z,9.02
2018-12-04T10:56:53.695Z,8.6
2018-12-04T10:57:55.105Z,8.36
2018-12-04T10:58:55.795Z,8.17
2018-12-04T10:59:56.203Z,8.05
2018-12-04T11:00:56.938Z,7.56
2018-12-04T11:01:59.126Z,7.22
2018-12-04T11:02:59.442Z,7.05
2018-12-04T11:03:59.851Z,6.9
2018-12-04T11:05:00.096Z,6.87
2018-12-04T11:06:04.738Z,6.74
2018-12-04T11:06:13.033Z,6.68
2018-12-04T11:07:13.848Z,6.57
2018-12-04T11:08:14.535Z,6.53
2018-12-04T11:09:14.713Z,6.59
2018-12-04T11:10:15.121Z,6.62
2018-12-04T11:11:15.536Z,6.49
2018-12-04T11:12:16.084Z,6.47
2018-12-04T11:13:16.887Z,6.43
2018-12-04T11:14:17.015Z,6.44
2018-12-04T11:15:18.046Z,6.47
2018-12-04T11:16:18.066Z,6.46
2018-12-04T11:17:19.904Z,6.54
2018-12-04T11:18:20.552Z,6.43
2018-12-04T11:19:21.767Z,6.47
2018-12-04T11:20:23.227Z,6.44
2018-12-04T11:21:24.214Z,6.43
2018-12-04T11:22:24.293Z,6.43
2018-12-04T11:23:24.901Z,6.5
2018-12-04T11:24:26.924Z,6.44
2018-12-04T11:25:25.871Z,6.68
2018-12-04T11:26:26.709Z,6.54
2018-12-04T11:27:26.995Z,6.6
2018-12-04T11:28:32.562Z,6.64
2018-12-04T11:28:42.888Z,6.6
2018-12-04T11:29:40.506Z,6.59
2018-12-04T11:30:40.630Z,6.59
2018-12-04T11:31:41.593Z,6.64
2018-12-04T11:32:42.557Z,6.7
2018-12-04T11:33:42.975Z,6.72
2018-12-04T11:34:44.111Z,6.65
2018-12-04T11:35:47.799Z,6.64
2018-12-04T11:36:51.624Z,6.6
2018-12-04T11:37:02.428Z,6.57
2018-12-04T11:38:00.558Z,6.65
2018-12-04T11:39:04.521Z,6.7
2018-12-04T11:40:02.770Z,6.64
2018-12-04T11:41:03.015Z,6.72
2018-12-04T11:42:07.955Z,6.64
2018-12-04T11:42:18.897Z,6.74
2018-12-04T11:43:20.753Z,6.65
2018-12-04T11:43:32.800Z,6.6
2018-12-04T11:43:45.776Z,6.6
2018-12-04T11:43:54.343Z,6.62
2018-12-04T11:44:58.676Z,6.54
2018-12-04T11:45:08.037Z,6.57
2018-12-04T11:46:08.331Z,6.68
2018-12-04T11:47:11.118Z,6.62
2018-12-04T11:48:10.889Z,6.68
2018-12-04T11:49:12.445Z,6.6
2018-12-04T11:50:13.130Z,6.59
2018-12-04T11:51:13.543Z,6.6
2018-12-04T11:52:14.964Z,6.65
2018-12-04T11:53:15.370Z,6.59
2018-12-04T11:54:18.727Z,6.52
2018-12-04T11:54:31.039Z,6.53
2018-12-04T11:54:42.793Z,6.5
2018-12-04T11:55:42.724Z,6.44
2018-12-04T11:56:45.434Z,6.5
2018-12-04T11:57:44.861Z,6.44
2018-12-04T11:58:45.547Z,6.5
2018-12-04T11:59:46.234Z,6.59
2018-12-04T12:00:47.199Z,6.56
2018-12-04T12:01:48.321Z,6.7
2018-12-04T12:02:48.319Z,6.68
2018-12-04T12:03:48.732Z,6.68
2018-12-04T12:04:49.420Z,6.8
2018-12-04T12:05:53.667Z,6.78
2018-12-04T12:06:05.474Z,6.87
2018-12-04T12:07:03.093Z,6.87
2018-12-04T12:08:03.505Z,6.8
2018-12-04T12:09:04.196Z,6.85
2018-12-04T12:10:04.881Z,6.86
2018-12-04T12:11:05.573Z,6.85
2018-12-04T12:12:06.257Z,6.85
2018-12-04T12:13:06.668Z,6.86
2018-12-04T12:14:07.798Z,6.78
2018-12-04T12:15:08.258Z,6.72
2018-12-04T12:16:08.953Z,6.75
2018-12-04T12:17:10.064Z,6.68
2018-12-04T12:18:14.672Z,6.68
2018-12-04T12:18:25.205Z,6.64
2018-12-04T12:19:23.706Z,6.72
2018-12-04T12:20:23.880Z,6.7
2018-12-04T12:21:25.854Z,6.56
2018-12-04T12:22:26.109Z,6.62
2018-12-04T12:23:26.730Z,6.59
2018-12-04T12:24:28.423Z,6.41
2018-12-04T12:25:29.105Z,6.49
2018-12-04T12:26:29.795Z,6.38
2018-12-04T12:27:30.927Z,6.34
2018-12-04T12:28:31.350Z,6.25
2018-12-04T12:29:31.733Z,6.29
2018-12-04T12:30:32.700Z,6.31
2018-12-04T12:31:33.666Z,6.32
2018-12-04T12:32:35.108Z,6.31
2018-12-04T12:33:36.238Z,6.32
2018-12-04T12:34:37.646Z,6.35
2018-12-04T12:35:38.052Z,6.35
2018-12-04T12:36:39.073Z,6.19
2018-12-04T12:37:40.049Z,6.26
2018-12-04T12:38:40.456Z,6.32
2018-12-04T12:39:41.600Z,6.35
2018-12-04T12:40:42.842Z,6.36
2018-12-04T12:41:43.260Z,6.47
2018-12-04T12:42:48.410Z,6.49
2018-12-04T12:42:59.306Z,6.44
2018-12-04T12:43:11.548Z,6.41
2018-12-04T12:44:09.353Z,6.47
2018-12-04T12:45:10.044Z,6.56
2018-12-04T12:46:10.454Z,6.6
2018-12-04T12:47:14.955Z,6.6
2018-12-04T12:47:26.296Z,6.59